ENKR

Kirkenes , Høybuktmoen Airport

Kirkenes, Norway
TAF AMD ENKR 221909Z 2219/2303 VRB05KT 8000 -DZ FEW005 BKN020 TEMPO 2219/2303 0800 FG VV002 TEMPO 2219/2303 BKN012 SCT030CB PROB40 2219/2303 TSRA
Issued Valid From Valid To
Jul-22 @ 19:09 UTC
(an hour ago)
Jul-22 @ 19:00 UTC
(an hour ago)
Jul-23 @ 03:00 UTC
(in 7 hours)
Jul-22 @ 19:00 to Jul-23 @ 03:00
TAF AMD ENKR 221909Z 2219/2303 VRB05KT 8000 -DZ FEW005 BKN020
Wind Visibility Clouds Conditions
Variable at 5 knots 7,998 meters
  • Few at 500' AGL
  • Broken at 2,000' AGL
  • Light Drizzle
Probable  (Probability 40%) Jul-22 @ 19:00 to Jul-23 @ 03:00
PROB40 2219/2303 TSRA
Conditions
  • Thunderstorm
  • Rain
Temporary Jul-22 @ 19:00 to Jul-23 @ 03:00
TEMPO 2219/2303 BKN012 SCT030CB
Clouds
  • Broken at 1,200' AGL
  • Scattered at 3,000' AGL
Temporary Jul-22 @ 19:00 to Jul-23 @ 03:00
TEMPO 2219/2303 BKN012 SCT030CB
Visibility Clouds Conditions
805 meters
  • Vertical visibility at 200' AGL
  • Fog
TAF AMD ENKR 221909Z 2219/2303 VRB05KT 8000 -DZ FEW005 BKN020 TEMPO 2219/2303 0800 FG VV002 TEMPO 2219/2303 BKN012 SCT030CB PROB40 2219/2303 TSRA
Issued Jul-22 @ 19:09 UTC
(an hour ago)
Valid From Jul-22 @ 19:00 UTC
(an hour ago)
Valid To Jul-23 @ 03:00 UTC
(in 7 hours)
Jul-22 @ 19:00 - Jul-23 @ 03:00
Wind Visibility
Variable at 5 knots 7,998 meters
Clouds
  • Few at 500' AGL
  • Broken at 2,000' AGL
Conditions
  • Light Drizzle
Probability 40% Probable Jul-22 @ 19:00 - Jul-23 @ 03:00
Conditions
  • Thunderstorm
  • Rain
Temporary Jul-22 @ 19:00 - Jul-23 @ 03:00
Clouds
  • Broken at 1,200' AGL
  • Scattered at 3,000' AGL
Temporary Jul-22 @ 19:00 - Jul-23 @ 03:00
Clouds
  • Vertical visibility at 200' AGL
Conditions
  • Fog